Time;durP1;ratioP1;P1;durP2;ratioP2;P2;SDS_P1;SDS_P2;PMS_P1;PMS_P2;Temp;Humidity;BMP_temperature;BMP_pressure;BME280_temperature;BME280_humidity;BME280_pressure;Samples;Min_cycle;Max_cycle;Signal;HPM_P1;HPM_P2
2021/08/14 00:00:18;;;;;;;0.80;0.70;;;17.70;99.90;;;;;;5039925;28;20586;-75
2021/08/14 00:02:44;;;;;;;0.80;0.60;;;17.70;99.90;;;;;;5026716;28;20176;-73
2021/08/14 00:05:10;;;;;;;1.20;0.90;;;17.70;99.90;;;;;;5014461;28;20990;-73
2021/08/14 00:07:35;;;;;;;1.87;1.53;;;17.70;99.90;;;;;;5021318;28;20431;-73
2021/08/14 00:10:01;;;;;;;0.70;0.50;;;17.70;99.90;;;;;;5029099;28;20676;-74
2021/08/14 00:12:27;;;;;;;0.70;0.60;;;17.70;99.90;;;;;;5032448;28;20858;-74
2021/08/14 00:14:52;;;;;;;0.97;0.90;;;17.70;99.90;;;;;;5027116;28;20513;-74
2021/08/14 00:17:19;;;;;;;0.70;0.50;;;17.70;99.90;;;;;;5033816;28;20714;-72
2021/08/14 00:19:44;;;;;;;1.43;0.70;;;17.70;99.90;;;;;;5033518;28;20648;-73
2021/08/14 00:22:10;;;;;;;1.63;1.53;;;17.60;99.90;;;;;;5014022;28;20399;-72
2021/08/14 00:24:35;;;;;;;1.53;0.80;;;17.60;99.90;;;;;;5014073;28;20215;-75
2021/08/14 00:27:01;;;;;;;1.00;0.90;;;17.50;99.90;;;;;;5013689;28;20211;-71
2021/08/14 00:29:26;;;;;;;1.50;1.20;;;17.50;99.90;;;;;;5030303;28;20207;-73
2021/08/14 00:31:52;;;;;;;0.73;0.57;;;17.40;99.90;;;;;;5017162;28;20285;-73
2021/08/14 00:34:18;;;;;;;0.80;0.70;;;17.30;99.90;;;;;;5017878;28;20171;-73
2021/08/14 00:36:45;;;;;;;1.63;1.50;;;17.30;99.90;;;;;;5040673;28;20184;-73
2021/08/14 00:39:11;;;;;;;0.73;0.57;;;17.30;99.90;;;;;;5027129;28;20412;-75
2021/08/14 00:41:36;;;;;;;1.00;0.90;;;17.30;99.90;;;;;;5032748;28;20508;-74
2021/08/14 00:44:03;;;;;;;1.53;0.63;;;17.30;99.90;;;;;;5033198;28;20179;-74
2021/08/14 00:46:30;;;;;;;1.53;1.13;;;17.30;99.90;;;;;;5032978;28;20199;-74
2021/08/14 00:48:57;;;;;;;0.70;0.60;;;17.30;99.90;;;;;;5022646;28;20427;-71
2021/08/14 00:51:22;;;;;;;0.80;0.60;;;17.20;99.90;;;;;;5013407;28;20454;-75
2021/08/14 00:53:48;;;;;;;2.20;2.10;;;17.10;99.90;;;;;;5000313;28;20489;-76
2021/08/14 00:56:14;;;;;;;0.80;0.73;;;17.20;99.90;;;;;;5021850;28;20199;-74
2021/08/14 00:58:39;;;;;;;0.90;0.80;;;17.10;99.90;;;;;;5032267;28;20164;-74
2021/08/14 01:01:05;;;;;;;0.90;0.70;;;17.10;99.90;;;;;;5031355;28;20210;-73
2021/08/14 01:03:31;;;;;;;3.63;0.77;;;17.10;99.90;;;;;;5023706;28;20172;-73
2021/08/14 01:05:58;;;;;;;0.80;0.60;;;17.00;99.90;;;;;;5007688;28;20202;-74
2021/08/14 01:08:24;;;;;;;0.70;0.50;;;17.00;99.90;;;;;;5032866;28;20403;-71
2021/08/14 01:10:49;;;;;;;1.27;0.97;;;17.00;99.90;;;;;;5032916;28;20453;-72
2021/08/14 01:13:15;;;;;;;2.10;1.90;;;17.00;99.90;;;;;;5030148;28;20187;-73
2021/08/14 01:15:43;;;;;;;2.03;1.83;;;17.00;99.90;;;;;;5030786;28;20242;-71
2021/08/14 01:18:12;;;;;;;1.93;1.00;;;17.00;99.90;;;;;;5022443;28;20176;-71
2021/08/14 01:20:38;;;;;;;2.50;1.73;;;17.00;99.90;;;;;;5018245;28;20423;-73
2021/08/14 01:23:04;;;;;;;1.40;0.80;;;17.00;99.90;;;;;;5025218;28;20476;-72
2021/08/14 01:25:29;;;;;;;2.03;0.90;;;17.00;99.90;;;;;;5017558;28;20455;-73
2021/08/14 01:27:55;;;;;;;3.10;0.93;;;17.00;99.90;;;;;;5012854;28;20176;-74
2021/08/14 01:30:20;;;;;;;3.50;1.97;;;17.00;99.90;;;;;;5013266;28;20207;-74
2021/08/14 01:32:46;;;;;;;1.17;1.07;;;17.10;99.90;;;;;;5012629;28;20287;-74
2021/08/14 01:35:12;;;;;;;8.33;1.87;;;17.10;99.90;;;;;;5012336;28;20184;-74
2021/08/14 01:37:37;;;;;;;0.80;0.70;;;17.10;99.90;;;;;;5013725;28;20176;-76
2021/08/14 01:40:03;;;;;;;8.03;1.97;;;17.20;99.90;;;;;;5018076;28;20198;-74
2021/08/14 01:42:29;;;;;;;0.80;0.70;;;17.20;99.90;;;;;;5032344;28;20182;-74
2021/08/14 01:44:55;;;;;;;1.80;0.90;;;17.10;99.90;;;;;;5036176;28;20445;-75
2021/08/14 01:47:20;;;;;;;1.53;0.90;;;17.10;99.90;;;;;;5022352;28;20207;-74
2021/08/14 01:49:46;;;;;;;9.43;3.50;;;17.20;99.90;;;;;;5022724;28;20191;-74
2021/08/14 01:52:13;;;;;;;1.43;1.13;;;17.20;99.90;;;;;;5026189;28;20711;-72
2021/08/14 01:54:39;;;;;;;1.13;0.80;;;17.10;99.90;;;;;;5019535;28;20172;-74
2021/08/14 01:57:06;;;;;;;1.13;0.80;;;17.10;99.90;;;;;;5031908;28;20431;-74
2021/08/14 01:59:36;;;;;;;1.40;1.30;;;17.10;99.90;;;;;;5015448;28;20423;-74
2021/08/14 02:02:02;;;;;;;1.67;0.97;;;17.10;99.90;;;;;;5012389;28;20403;-74
2021/08/14 02:04:29;;;;;;;0.70;0.60;;;17.10;99.90;;;;;;5016334;28;20534;-73
2021/08/14 02:06:55;;;;;;;2.20;1.57;;;17.00;99.90;;;;;;5012144;28;20530;-72
2021/08/14 02:09:20;;;;;;;2.23;1.10;;;17.10;99.90;;;;;;5020142;28;20833;-72
2021/08/14 02:11:46;;;;;;;4.17;1.30;;;17.10;99.90;;;;;;5036726;28;20497;-75
2021/08/14 02:14:13;;;;;;;3.10;2.90;;;17.10;99.90;;;;;;5025128;28;20690;-74
2021/08/14 02:16:39;;;;;;;1.57;1.47;;;17.10;99.90;;;;;;5017597;28;20194;-74
2021/08/14 02:19:05;;;;;;;2.37;1.13;;;17.10;99.90;;;;;;5030202;28;20523;-72
2021/08/14 02:21:31;;;;;;;1.77;1.67;;;17.20;99.90;;;;;;5012535;28;20448;-72
2021/08/14 02:23:58;;;;;;;2.40;1.00;;;17.20;99.90;;;;;;5025906;28;20554;-74
2021/08/14 02:26:24;;;;;;;1.77;1.10;;;17.20;99.90;;;;;;5028795;28;20191;-73
2021/08/14 02:28:50;;;;;;;1.17;1.07;;;17.20;99.90;;;;;;5029054;28;20411;-73
2021/08/14 02:31:16;;;;;;;1.30;1.17;;;17.20;99.90;;;;;;5045708;28;20462;-74
2021/08/14 02:33:42;;;;;;;0.80;0.70;;;17.20;99.90;;;;;;5029593;28;20410;-74
2021/08/14 02:36:08;;;;;;;4.50;2.00;;;17.20;99.90;;;;;;5030110;28;20423;-74
2021/08/14 02:38:35;;;;;;;2.70;1.07;;;17.20;99.90;;;;;;5038633;28;20195;-75
2021/08/14 02:41:02;;;;;;;5.07;1.80;;;17.20;99.90;;;;;;5050497;28;20409;-75
2021/08/14 02:43:27;;;;;;;0.80;0.60;;;17.10;99.90;;;;;;5050476;28;20410;-74
2021/08/14 02:45:53;;;;;;;1.23;0.87;;;17.00;99.90;;;;;;5044068;28;20443;-73
2021/08/14 02:48:19;;;;;;;2.10;0.80;;;17.00;99.90;;;;;;5030921;28;20176;-75
2021/08/14 02:50:45;;;;;;;2.07;1.10;;;17.00;99.90;;;;;;5030984;28;20573;-74
2021/08/14 02:53:12;;;;;;;2.83;0.93;;;16.90;99.90;;;;;;5032974;28;20176;-75
2021/08/14 02:55:38;;;;;;;4.97;2.30;;;16.90;99.90;;;;;;5036309;28;20478;-74
2021/08/14 02:58:04;;;;;;;0.70;0.50;;;16.90;99.90;;;;;;5030513;28;20418;-73
2021/08/14 03:00:29;;;;;;;1.73;1.43;;;16.90;99.90;;;;;;5030898;28;20505;-75
2021/08/14 03:02:55;;;;;;;3.60;3.30;;;16.90;99.90;;;;;;5037936;28;20506;-75
2021/08/14 03:05:21;;;;;;;1.43;1.33;;;16.90;99.90;;;;;;5048991;28;20201;-74
2021/08/14 03:07:47;;;;;;;2.30;1.07;;;16.80;99.90;;;;;;5050345;28;20198;-75
2021/08/14 03:10:12;;;;;;;0.90;0.70;;;16.90;99.90;;;;;;5047269;28;20168;-75
2021/08/14 03:12:38;;;;;;;0.80;0.73;;;16.90;99.90;;;;;;5036828;28;20484;-73
2021/08/14 03:15:05;;;;;;;3.53;2.63;;;16.90;99.90;;;;;;5032212;28;20187;-73
2021/08/14 03:17:31;;;;;;;1.10;0.90;;;16.90;99.90;;;;;;5042905;28;20192;-75
2021/08/14 03:19:57;;;;;;;1.00;0.83;;;16.90;99.90;;;;;;5051243;28;20418;-74
2021/08/14 03:22:22;;;;;;;1.10;1.00;;;16.90;99.90;;;;;;5052926;28;20251;-72
2021/08/14 03:24:48;;;;;;;0.80;0.60;;;16.90;99.90;;;;;;5044741;28;20180;-75
2021/08/14 03:27:13;;;;;;;1.50;1.03;;;16.90;99.90;;;;;;5038005;28;20239;-71
2021/08/14 03:29:39;;;;;;;1.27;1.17;;;16.80;99.90;;;;;;5032581;28;20240;-74
2021/08/14 03:32:05;;;;;;;2.93;2.77;;;16.80;99.90;;;;;;5034487;28;20205;-73
2021/08/14 03:34:30;;;;;;;1.57;1.47;;;16.80;99.90;;;;;;5049918;28;20167;-75
2021/08/14 03:36:56;;;;;;;4.30;0.97;;;16.80;99.90;;;;;;5050354;28;20222;-74
2021/08/14 03:39:21;;;;;;;0.70;0.60;;;16.80;99.90;;;;;;5038711;28;20184;-75
2021/08/14 03:41:47;;;;;;;1.87;0.97;;;16.80;99.90;;;;;;5015890;28;20176;-73
2021/08/14 03:44:13;;;;;;;0.77;0.70;;;16.80;99.90;;;;;;5033526;28;20176;-75
2021/08/14 03:46:38;;;;;;;6.60;1.83;;;16.80;99.90;;;;;;5014553;28;20196;-75
2021/08/14 03:49:04;;;;;;;0.80;0.80;;;16.70;99.90;;;;;;5034586;28;20481;-75
2021/08/14 03:51:30;;;;;;;1.20;0.83;;;16.70;99.90;;;;;;5052314;28;20194;-74
2021/08/14 03:53:55;;;;;;;0.93;0.83;;;16.60;99.90;;;;;;5045834;28;20194;-73
2021/08/14 03:56:21;;;;;;;0.90;0.90;;;16.60;99.90;;;;;;5052502;28;20242;-73
2021/08/14 03:58:46;;;;;;;1.40;0.70;;;16.40;99.90;;;;;;5042145;28;20175;-75
2021/08/14 04:01:12;;;;;;;1.03;0.90;;;16.40;99.90;;;;;;5032066;28;20176;-75
2021/08/14 04:03:38;;;;;;;0.80;0.73;;;16.30;99.90;;;;;;5031690;28;20175;-73
2021/08/14 04:06:03;;;;;;;1.73;1.63;;;16.30;99.90;;;;;;5032306;28;20191;-72
2021/08/14 04:08:29;;;;;;;0.93;0.83;;;16.20;99.90;;;;;;5031993;28;20176;-75
2021/08/14 04:10:54;;;;;;;0.70;0.60;;;16.20;99.90;;;;;;5049443;28;20259;-74
2021/08/14 04:13:20;;;;;;;0.70;0.60;;;16.10;99.90;;;;;;5033681;28;20641;-74
2021/08/14 04:15:45;;;;;;;1.77;0.77;;;16.10;99.90;;;;;;5048822;28;20197;-73
2021/08/14 04:18:11;;;;;;;3.07;0.83;;;16.00;99.90;;;;;;5050001;28;20179;-75
2021/08/14 04:20:38;;;;;;;1.90;1.80;;;16.00;99.90;;;;;;5044988;28;20195;-74
2021/08/14 04:23:04;;;;;;;1.27;0.97;;;16.00;99.90;;;;;;5030272;28;20442;-75
2021/08/14 04:25:29;;;;;;;2.17;2.03;;;15.90;99.90;;;;;;5030701;28;20182;-74
2021/08/14 04:27:55;;;;;;;1.90;1.00;;;15.90;99.90;;;;;;5050802;28;20183;-75
2021/08/14 04:30:21;;;;;;;0.80;0.67;;;15.80;99.90;;;;;;5032204;28;20182;-73
2021/08/14 04:32:47;;;;;;;2.00;1.73;;;15.80;99.90;;;;;;5030524;28;20211;-74
2021/08/14 04:35:14;;;;;;;1.00;0.80;;;15.80;99.90;;;;;;5042251;28;20270;-74
2021/08/14 04:37:41;;;;;;;1.37;1.27;;;15.90;99.90;;;;;;5048133;28;20414;-73
2021/08/14 04:40:09;;;;;;;0.80;0.70;;;15.90;99.90;;;;;;5036623;28;20499;-73
2021/08/14 04:42:35;;;;;;;1.00;0.87;;;15.90;99.90;;;;;;5032439;28;20423;-74
2021/08/14 04:45:01;;;;;;;0.90;0.70;;;15.90;99.90;;;;;;5030025;28;20415;-75
2021/08/14 04:47:27;;;;;;;0.70;0.50;;;16.00;99.90;;;;;;5030837;28;20443;-74
2021/08/14 04:49:52;;;;;;;1.03;0.93;;;16.00;99.90;;;;;;5030920;28;20176;-75
2021/08/14 04:52:18;;;;;;;1.27;0.87;;;16.00;99.90;;;;;;5032199;28;20211;-75
2021/08/14 04:54:43;;;;;;;1.47;1.37;;;16.00;99.90;;;;;;5039975;28;20182;-73
2021/08/14 04:57:09;;;;;;;0.90;0.70;;;16.10;99.90;;;;;;5049571;28;20239;-72
2021/08/14 04:59:35;;;;;;;3.03;0.80;;;16.20;99.90;;;;;;5035241;28;20188;-73
2021/08/14 05:02:03;;;;;;;2.80;0.80;;;16.10;99.90;;;;;;5046729;28;20608;-75
2021/08/14 05:04:29;;;;;;;1.63;1.43;;;16.20;99.90;;;;;;5050932;28;20164;-75
2021/08/14 05:06:54;;;;;;;4.00;1.17;;;16.20;99.90;;;;;;5032931;28;20430;-75
2021/08/14 05:09:20;;;;;;;1.10;1.00;;;16.30;99.90;;;;;;5050655;28;20922;-74
2021/08/14 05:11:45;;;;;;;0.90;0.80;;;16.30;99.90;;;;;;5050760;28;20203;-74
2021/08/14 05:14:11;;;;;;;2.50;0.70;;;16.30;99.90;;;;;;5034307;28;20167;-73
2021/08/14 05:16:36;;;;;;;1.17;1.07;;;16.40;99.90;;;;;;5050780;28;20192;-75
2021/08/14 05:19:06;;;;;;;0.80;0.70;;;16.40;99.90;;;;;;5051600;28;20175;-73
2021/08/14 05:21:33;;;;;;;1.10;1.00;;;16.50;99.90;;;;;;5051617;28;20168;-74
2021/08/14 05:23:59;;;;;;;3.80;2.30;;;16.50;99.90;;;;;;5052041;28;20492;-74
2021/08/14 05:26:25;;;;;;;1.43;1.33;;;16.60;99.90;;;;;;5046833;28;20844;-75
2021/08/14 05:28:50;;;;;;;0.87;0.87;;;16.60;99.90;;;;;;5049023;28;20460;-75
2021/08/14 05:31:16;;;;;;;0.83;0.67;;;16.70;99.90;;;;;;5053136;28;20203;-73
2021/08/14 05:33:42;;;;;;;2.30;1.00;;;16.70;99.90;;;;;;5035727;28;20172;-71
2021/08/14 05:36:10;;;;;;;1.00;0.90;;;16.80;99.90;;;;;;5040929;28;20207;-75
2021/08/14 05:38:36;;;;;;;2.93;1.70;;;16.90;99.90;;;;;;5035912;28;20219;-71
2021/08/14 05:41:03;;;;;;;1.73;0.83;;;17.00;99.90;;;;;;5040609;28;20462;-71
2021/08/14 05:43:28;;;;;;;3.00;1.03;;;17.20;99.90;;;;;;5037860;28;20411;-71
2021/08/14 05:45:54;;;;;;;1.17;1.00;;;17.30;99.90;;;;;;5037764;28;20462;-71
2021/08/14 05:48:19;;;;;;;2.70;1.20;;;17.50;99.90;;;;;;5052889;28;20170;-72
2021/08/14 05:50:46;;;;;;;2.40;1.10;;;17.80;99.90;;;;;;5043310;28;20180;-71
2021/08/14 05:53:13;;;;;;;1.53;1.43;;;18.10;99.90;;;;;;5037391;28;20196;-71
2021/08/14 05:55:38;;;;;;;1.80;1.70;;;18.40;99.90;;;;;;5042646;28;20458;-73
2021/08/14 05:58:04;;;;;;;5.70;1.87;;;18.60;99.90;;;;;;5037771;28;20431;-71
2021/08/14 06:00:29;;;;;;;1.57;1.47;;;18.80;99.90;;;;;;5037400;28;20160;-71
2021/08/14 06:02:55;;;;;;;3.13;2.03;;;19.00;99.90;;;;;;5037563;28;20153;-71
2021/08/14 06:05:20;;;;;;;1.33;1.07;;;19.20;99.90;;;;;;5037222;28;20164;-71
2021/08/14 06:07:48;;;;;;;2.77;1.67;;;19.30;99.90;;;;;;5041177;28;20164;-73
2021/08/14 06:10:14;;;;;;;0.70;0.70;;;19.40;99.90;;;;;;5054631;28;20179;-72
2021/08/14 06:12:40;;;;;;;0.87;0.80;;;19.70;99.90;;;;;;5046086;28;20470;-73
2021/08/14 06:15:06;;;;;;;0.80;0.73;;;20.20;99.90;;;;;;5041695;28;20434;-72
2021/08/14 06:17:32;;;;;;;2.90;2.70;;;20.60;99.90;;;;;;5041161;28;20222;-71
2021/08/14 06:19:57;;;;;;;3.50;3.20;;;21.00;99.90;;;;;;5037060;28;20395;-71
2021/08/14 06:22:23;;;;;;;1.17;1.07;;;21.40;99.90;;;;;;5036426;28;20199;-71
2021/08/14 06:24:50;;;;;;;1.57;0.70;;;21.90;99.90;;;;;;5036461;28;20164;-71
2021/08/14 06:27:16;;;;;;;4.77;2.40;;;22.20;99.90;;;;;;5050386;28;20204;-72
2021/08/14 06:29:42;;;;;;;3.23;2.37;;;22.60;99.90;;;;;;5035950;28;20442;-73
2021/08/14 06:32:07;;;;;;;2.50;0.90;;;22.90;99.90;;;;;;5055474;28;20238;-72
2021/08/14 06:34:33;;;;;;;1.73;0.83;;;23.10;99.90;;;;;;5048682;28;20168;-74
2021/08/14 06:36:59;;;;;;;0.80;0.60;;;23.50;99.90;;;;;;5035538;28;20442;-76
2021/08/14 06:39:24;;;;;;;6.23;2.90;;;23.80;99.90;;;;;;5035410;28;20168;-73
2021/08/14 06:41:50;;;;;;;0.80;0.70;;;24.00;99.90;;;;;;5035206;28;20169;-74
2021/08/14 06:44:15;;;;;;;0.90;0.70;;;24.40;99.90;;;;;;5038140;28;20167;-74
2021/08/14 06:46:41;;;;;;;1.07;0.77;;;24.50;99.90;;;;;;5051955;28;20200;-75
2021/08/14 06:49:06;;;;;;;0.90;0.80;;;24.70;99.90;;;;;;5035152;28;20180;-74
2021/08/14 06:51:32;;;;;;;1.67;1.13;;;24.90;99.90;;;;;;5031616;28;20188;-74
2021/08/14 06:53:58;;;;;;;1.27;0.80;;;25.20;99.90;;;;;;5035575;28;20251;-76
2021/08/14 06:56:24;;;;;;;3.67;0.90;;;25.40;99.90;;;;;;5049736;28;20198;-74
2021/08/14 06:58:49;;;;;;;1.40;0.90;;;25.40;99.90;;;;;;5039948;28;20415;-76
2021/08/14 07:01:15;;;;;;;1.33;0.90;;;25.50;99.90;;;;;;5013734;28;20176;-75
2021/08/14 07:03:40;;;;;;;1.00;0.90;;;25.60;99.90;;;;;;5045995;28;20172;-75
2021/08/14 07:06:06;;;;;;;3.83;1.00;;;25.70;99.90;;;;;;5035119;28;22070;-75
2021/08/14 07:08:32;;;;;;;1.00;0.80;;;25.80;99.90;;;;;;5035512;28;20184;-76
2021/08/14 07:10:57;;;;;;;0.87;0.70;;;26.10;99.90;;;;;;5039097;28;20178;-76
2021/08/14 07:13:23;;;;;;;1.47;0.80;;;26.30;99.90;;;;;;5023570;28;20167;-76
2021/08/14 07:15:48;;;;;;;1.00;0.90;;;26.50;99.90;;;;;;5028299;28;20275;-75
2021/08/14 07:18:14;;;;;;;1.20;1.10;;;26.60;99.90;;;;;;5018567;28;20180;-76
2021/08/14 07:20:39;;;;;;;1.10;0.90;;;26.80;99.90;;;;;;5009808;28;20176;-75
2021/08/14 07:23:05;;;;;;;1.93;0.97;;;26.90;99.90;;;;;;5027132;28;20650;-75
2021/08/14 07:25:30;;;;;;;6.87;1.57;;;26.90;99.90;;;;;;5019177;28;20175;-75
2021/08/14 07:27:56;;;;;;;1.73;0.90;;;27.10;99.90;;;;;;5019240;28;20167;-77
2021/08/14 07:30:22;;;;;;;1.03;0.80;;;27.40;99.90;;;;;;5033433;28;20171;-76
2021/08/14 07:32:47;;;;;;;0.90;0.70;;;27.50;99.90;;;;;;5031133;28;20262;-76
2021/08/14 07:35:13;;;;;;;1.50;1.30;;;27.80;99.90;;;;;;5017278;28;20172;-75
2021/08/14 07:37:50;;;;;;;0.93;0.83;;;28.00;99.90;;;;;;5035030;28;20160;-76
2021/08/14 07:40:20;;;;;;;0.80;0.60;;;28.20;99.90;;;;;;5035695;28;20246;-75
2021/08/14 07:42:46;;;;;;;1.33;1.23;;;28.30;99.90;;;;;;5034559;28;20399;-76
2021/08/14 07:45:15;;;;;;;1.57;1.47;;;28.50;99.90;;;;;;5015968;28;20436;-76
2021/08/14 07:47:42;;;;;;;1.40;1.30;;;28.50;99.90;;;;;;5033266;28;20172;-76
2021/08/14 07:50:09;;;;;;;1.30;1.20;;;28.70;99.90;;;;;;5035275;28;20414;-76
2021/08/14 07:52:34;;;;;;;1.30;0.97;;;28.80;99.90;;;;;;5017153;28;20462;-76
2021/08/14 07:55:00;;;;;;;1.40;0.70;;;28.70;99.90;;;;;;5024101;28;20761;-76
2021/08/14 07:57:25;;;;;;;0.90;0.70;;;29.00;99.90;;;;;;5002478;28;20191;-76
2021/08/14 07:59:51;;;;;;;0.90;0.80;;;29.10;99.10;;;;;;5016530;28;20226;-76
2021/08/14 08:02:16;;;;;;;1.73;1.07;;;29.20;97.70;;;;;;5014583;28;20164;-76
2021/08/14 08:04:42;;;;;;;1.07;0.87;;;29.30;98.50;;;;;;5014470;28;20173;-76
2021/08/14 08:07:07;;;;;;;1.20;0.67;;;29.40;97.30;;;;;;5014284;28;20731;-76
2021/08/14 08:09:33;;;;;;;1.00;0.70;;;29.50;96.30;;;;;;4996833;28;20176;-76
2021/08/14 08:11:58;;;;;;;2.60;2.27;;;29.50;95.30;;;;;;5027326;28;20207;-76
2021/08/14 08:14:24;;;;;;;1.00;0.90;;;29.50;94.80;;;;;;5014391;28;20258;-77
2021/08/14 08:16:51;;;;;;;1.73;1.23;;;29.40;93.00;;;;;;5029906;28;20271;-75
2021/08/14 08:19:17;;;;;;;1.07;0.70;;;29.10;90.40;;;;;;5033889;28;20683;-75
2021/08/14 08:21:43;;;;;;;0.90;0.63;;;29.20;91.90;;;;;;5033884;28;20442;-76
2021/08/14 08:24:08;;;;;;;2.43;2.07;;;29.20;91.80;;;;;;5031108;28;20499;-75
2021/08/14 08:26:34;;;;;;;1.87;1.77;;;29.30;92.10;;;;;;5025483;28;20208;-75
2021/08/14 08:29:00;;;;;;;0.90;0.77;;;29.70;94.70;;;;;;5033701;28;20683;-73
2021/08/14 08:31:26;;;;;;;1.73;0.80;;;29.70;90.80;;;;;;5033533;28;20270;-73
2021/08/14 08:33:51;;;;;;;1.30;0.80;;;30.00;92.10;;;;;;5015654;28;20497;-73
2021/08/14 08:36:17;;;;;;;1.20;1.10;;;30.40;91.70;;;;;;5014951;28;20195;-75
2021/08/14 08:38:42;;;;;;;0.90;0.70;;;30.40;81.60;;;;;;5032185;28;20167;-73
2021/08/14 08:41:09;;;;;;;1.43;1.30;;;30.40;86.40;;;;;;5028507;28;20207;-77
2021/08/14 08:43:34;;;;;;;1.27;0.80;;;30.70;81.80;;;;;;5022101;28;20260;-76
2021/08/14 08:46:00;;;;;;;1.10;1.00;;;30.60;80.80;;;;;;5014128;28;20864;-76
2021/08/14 08:48:26;;;;;;;1.17;0.87;;;30.70;77.50;;;;;;5019093;28;20178;-77
2021/08/14 08:50:54;;;;;;;1.00;0.80;;;30.90;76.90;;;;;;5021981;28;20508;-76
2021/08/14 08:53:19;;;;;;;1.20;0.83;;;31.00;76.20;;;;;;5009554;28;20203;-76
2021/08/14 08:55:46;;;;;;;1.30;1.07;;;31.30;78.30;;;;;;5002957;28;20481;-72
2021/08/14 08:58:11;;;;;;;1.30;0.80;;;31.20;70.00;;;;;;5023178;28;20613;-73
2021/08/14 09:00:37;;;;;;;1.77;1.50;;;31.20;72.70;;;;;;5013392;28;20490;-73
2021/08/14 09:03:05;;;;;;;1.23;1.13;;;31.40;74.70;;;;;;5013212;28;20592;-74
2021/08/14 09:05:31;;;;;;;3.00;1.43;;;31.30;72.60;;;;;;5013218;28;20172;-73
2021/08/14 09:08:10;;;;;;;0.90;0.60;;;31.10;66.60;;;;;;5027680;28;20518;-74
2021/08/14 09:10:35;;;;;;;1.60;1.50;;;31.40;70.60;;;;;;5024973;28;20179;-74
2021/08/14 09:13:19;;;;;;;7.40;2.60;;;31.30;70.80;;;;;;5031933;28;20516;-74
2021/08/14 09:15:45;;;;;;;1.40;1.03;;;31.10;68.60;;;;;;5022361;28;20231;-75
2021/08/14 09:18:14;;;;;;;1.20;0.90;;;31.10;73.10;;;;;;5028966;28;20433;-75
2021/08/14 09:20:54;;;;;;;1.40;1.03;;;31.10;72.80;;;;;;5025049;28;20469;-75
2021/08/14 09:23:24;;;;;;;1.30;1.00;;;31.40;74.70;;;;;;5032334;28;20464;-75
2021/08/14 09:25:57;;;;;;;1.03;0.93;;;31.50;70.00;;;;;;5014109;28;20447;-74
2021/08/14 09:28:39;;;;;;;5.20;2.57;;;31.80;68.20;;;;;;5028141;28;20429;-73
2021/08/14 09:31:06;;;;;;;1.60;1.10;;;31.90;72.00;;;;;;5018477;28;20818;-75
2021/08/14 09:33:37;;;;;;;1.10;1.00;;;31.90;68.20;;;;;;5018431;28;20418;-73
2021/08/14 09:36:10;;;;;;;2.00;1.90;;;31.90;65.10;;;;;;5031891;28;20434;-74
2021/08/14 09:38:44;;;;;;;1.83;1.10;;;32.20;66.20;;;;;;5029592;28;20446;-73
2021/08/14 09:41:14;;;;;;;1.33;1.10;;;32.30;67.00;;;;;;5023929;28;20419;-74
2021/08/14 09:43:41;;;;;;;0.90;0.70;;;32.10;63.80;;;;;;5029838;28;20422;-74
2021/08/14 09:46:07;;;;;;;1.10;0.90;;;31.70;66.10;;;;;;5031959;28;20938;-71
2021/08/14 09:48:32;;;;;;;1.43;1.33;;;32.20;69.90;;;;;;5019970;28;20431;-72
2021/08/14 09:50:58;;;;;;;2.30;1.00;;;32.40;67.00;;;;;;5023163;28;21819;-73
2021/08/14 09:53:27;;;;;;;1.87;1.13;;;32.80;64.30;;;;;;5013778;28;20592;-74
2021/08/14 09:56:04;;;;;;;1.83;0.80;;;32.50;60.30;;;;;;5019524;28;20437;-73
2021/08/14 09:58:31;;;;;;;2.90;2.70;;;32.80;66.40;;;;;;5026405;28;20421;-73
2021/08/14 10:00:59;;;;;;;3.43;1.20;;;33.20;65.20;;;;;;5012420;28;20435;-73
2021/08/14 10:03:27;;;;;;;1.40;1.30;;;32.50;60.00;;;;;;5021907;28;20805;-73
2021/08/14 10:05:54;;;;;;;3.53;1.43;;;32.20;59.20;;;;;;5013176;28;20813;-73
2021/08/14 10:08:20;;;;;;;1.20;0.80;;;32.40;62.50;;;;;;5014029;28;20483;-75
2021/08/14 10:10:46;;;;;;;1.00;0.80;;;32.90;62.80;;;;;;5014018;28;20407;-72
2021/08/14 10:13:12;;;;;;;1.20;0.80;;;32.60;58.10;;;;;;5027407;28;20511;-72
2021/08/14 10:15:38;;;;;;;0.90;0.70;;;32.50;60.60;;;;;;5016045;28;20206;-72
2021/08/14 10:18:04;;;;;;;1.00;0.90;;;32.60;61.10;;;;;;5013555;28;20818;-75
2021/08/14 10:20:31;;;;;;;1.47;0.93;;;32.90;61.20;;;;;;5024227;28;20430;-74
2021/08/14 10:23:00;;;;;;;1.20;0.90;;;33.10;58.20;;;;;;5026465;28;20446;-74
2021/08/14 10:25:26;;;;;;;3.00;1.00;;;33.60;59.60;;;;;;5020014;28;20453;-73
2021/08/14 10:28:01;;;;;;;1.93;1.33;;;33.80;58.80;;;;;;5011540;28;20506;-74
2021/08/14 10:30:48;;;;;;;0.90;0.80;;;34.20;58.90;;;;;;5011544;28;20435;-74
2021/08/14 10:33:33;;;;;;;3.10;1.00;;;34.40;58.80;;;;;;5024516;28;20457;-73
2021/08/14 10:36:20;;;;;;;2.97;2.77;;;34.10;56.50;;;;;;5012891;28;20588;-73
2021/08/14 10:38:50;;;;;;;0.90;0.77;;;34.20;55.00;;;;;;5012613;28;20423;-73
2021/08/14 10:41:17;;;;;;;1.30;1.20;;;34.00;53.40;;;;;;5014760;28;21205;-73
2021/08/14 10:43:54;;;;;;;1.60;1.10;;;34.10;56.30;;;;;;5022339;28;20536;-73
2021/08/14 10:46:39;;;;;;;1.20;1.00;;;34.40;53.80;;;;;;5029139;28;20446;-74
2021/08/14 10:49:08;;;;;;;2.70;1.27;;;34.70;55.70;;;;;;5027337;28;20533;-71
2021/08/14 10:51:51;;;;;;;0.90;0.80;;;34.90;52.90;;;;;;5016339;28;20458;-74
2021/08/14 10:54:29;;;;;;;1.10;0.93;;;34.90;51.80;;;;;;5017228;28;20424;-72
2021/08/14 10:57:04;;;;;;;1.27;0.80;;;35.10;54.90;;;;;;5020656;28;20469;-72
2021/08/14 10:59:38;;;;;;;1.00;0.70;;;35.20;51.50;;;;;;5028834;28;20429;-72
2021/08/14 11:02:09;;;;;;;1.23;1.10;;;34.60;50.00;;;;;;5013539;28;21032;-72
2021/08/14 11:05:00;;;;;;;1.67;1.30;;;33.90;47.70;;;;;;5024483;28;20434;-72
2021/08/14 11:07:25;;;;;;;1.30;0.90;;;33.60;49.60;;;;;;5024092;28;20458;-74
2021/08/14 11:09:54;;;;;;;1.23;0.93;;;33.70;49.20;;;;;;5029300;28;21005;-73
2021/08/14 11:12:42;;;;;;;0.90;0.73;;;33.90;50.40;;;;;;5023665;28;20266;-75
2021/08/14 11:15:21;;;;;;;0.90;0.80;;;34.30;53.90;;;;;;5021958;28;20426;-72
2021/08/14 11:17:51;;;;;;;1.57;1.47;;;34.80;54.30;;;;;;5020179;28;20422;-74
2021/08/14 11:20:20;;;;;;;1.00;0.70;;;34.90;52.00;;;;;;5015519;28;20816;-75
2021/08/14 11:22:48;;;;;;;3.20;1.17;;;34.80;49.70;;;;;;5001689;28;20455;-75
2021/08/14 11:25:46;;;;;;;1.27;0.90;;;34.90;51.10;;;;;;5025912;28;20419;-75
2021/08/14 11:28:17;;;;;;;1.77;1.67;;;35.00;50.90;;;;;;5012251;28;20457;-75
2021/08/14 11:31:04;;;;;;;0.80;0.70;;;35.10;51.10;;;;;;5015239;28;20430;-75
2021/08/14 11:33:31;;;;;;;1.10;0.80;;;34.10;46.80;;;;;;5018903;28;20418;-74
2021/08/14 11:36:08;;;;;;;1.40;1.23;;;33.70;47.80;;;;;;5016827;28;20477;-75
2021/08/14 11:38:43;;;;;;;1.10;1.00;;;33.90;48.70;;;;;;5019175;28;20406;-74
2021/08/14 11:41:16;;;;;;;1.10;1.00;;;33.80;49.90;;;;;;5028149;28;20770;-74
2021/08/14 11:43:42;;;;;;;0.90;0.73;;;33.50;48.60;;;;;;5014359;28;20499;-74
2021/08/14 11:46:09;;;;;;;1.13;0.90;;;33.40;50.50;;;;;;5012779;28;20519;-73
2021/08/14 11:48:43;;;;;;;1.10;0.80;;;32.90;51.80;;;;;;5014679;28;20406;-73
2021/08/14 11:51:16;;;;;;;1.30;1.20;;;32.90;53.50;;;;;;5017499;28;20860;-73
2021/08/14 11:53:42;;;;;;;1.50;1.10;;;32.60;51.90;;;;;;5014585;28;20410;-73
2021/08/14 11:56:10;;;;;;;1.30;0.90;;;32.60;54.00;;;;;;5014403;28;20439;-73
2021/08/14 11:58:37;;;;;;;1.20;1.10;;;32.50;52.40;;;;;;5016119;28;20415;-74
2021/08/14 12:01:04;;;;;;;1.00;0.70;;;32.60;53.80;;;;;;5014701;28;20547;-74
2021/08/14 12:03:29;;;;;;;1.13;1.00;;;32.30;52.90;;;;;;5014742;28;20419;-74
2021/08/14 12:06:13;;;;;;;1.67;0.90;;;32.30;52.00;;;;;;5013940;28;21003;-75
2021/08/14 12:08:41;;;;;;;1.23;0.87;;;32.50;55.20;;;;;;5014210;28;20169;-72
2021/08/14 12:11:12;;;;;;;0.97;0.87;;;33.10;55.20;;;;;;5028707;28;20425;-71
2021/08/14 12:13:39;;;;;;;1.40;1.30;;;33.50;54.90;;;;;;5014608;28;20492;-72
2021/08/14 12:16:14;;;;;;;1.20;0.90;;;33.50;51.90;;;;;;5018530;28;20858;-72
2021/08/14 12:18:42;;;;;;;1.17;1.07;;;33.30;52.50;;;;;;5024769;28;20510;-72
2021/08/14 12:21:08;;;;;;;1.10;1.00;;;33.50;52.70;;;;;;5013422;28;20427;-72
2021/08/14 12:23:35;;;;;;;1.00;0.80;;;33.60;52.80;;;;;;5020161;28;20438;-72
2021/08/14 12:26:05;;;;;;;1.00;0.90;;;33.30;51.70;;;;;;5022212;28;20442;-72
2021/08/14 12:28:34;;;;;;;0.90;0.70;;;33.40;52.10;;;;;;5022617;28;20433;-73
2021/08/14 12:31:12;;;;;;;1.40;0.90;;;33.70;54.30;;;;;;5023046;28;20423;-73
2021/08/14 12:33:49;;;;;;;1.17;0.90;;;34.00;52.30;;;;;;5023419;28;20558;-73
2021/08/14 12:36:16;;;;;;;1.07;0.97;;;34.40;52.90;;;;;;5029781;28;20799;-75
2021/08/14 12:38:50;;;;;;;1.17;1.07;;;34.40;53.10;;;;;;5018428;28;20498;-73
2021/08/14 12:41:17;;;;;;;1.20;0.87;;;34.30;49.70;;;;;;5013355;28;20418;-73
2021/08/14 12:43:44;;;;;;;1.00;0.87;;;34.20;49.70;;;;;;5010333;28;20449;-73
2021/08/14 12:46:21;;;;;;;1.10;1.00;;;34.50;51.40;;;;;;5022504;28;21016;-73
2021/08/14 12:49:25;;;;;;;2.00;1.90;;;34.60;50.80;;;;;;5014049;28;20423;-73